首页
METAR-TAF:

METAR-TAF

机场 :

薩卡特卡斯州, 墨西哥

纬度: 22-54N, 经度: 102-41W, 海拔: 2140米

当前天气观测

该预报发布于23分钟前的04:40 UTC
风速10节,风向北转东北
温度 18°C
湿度 73%
气压 1025 hPa
能見度: 12.9公里
散云层高于5000英尺

METAR: MMZC 220440Z E02010KT 8SM SCT050 18/13 A3028 RMK 8/300 HZY

时间: 00:03 (05:03 UTC)

预报

该预报发布于6小时和21分钟前的22:42 UTC
预报有效从22日的 00点(UTC)到 23日的 00点(UTC)
风速10节,风向
能見度: 10公里
多云层高于4000英尺
从 22日的 0400点(UTC)
风速5节,风向
能見度: 10公里
散云层高于4000英尺
散云层高于12000英尺
从 22日的 1000点(UTC)
风速节,风向
能見度: 6.4公里
多云层高于1000英尺
从 22日的 1600点(UTC)
风速10节,风向
能見度: 10公里
散云层高于4000英尺
成为
从 22日的 20点(UTC)到 22日的 21点(UTC)
散云层高于3000英尺, 积雨云.

TAF: MMZC 212242Z 2200/2300 08010KT P6SM BKN040 TX23/2221Z TN13/2213Z FM220400 10005KT P6SM SCT040 SCT120 FM221000 00000KT 4SM HZ BKN010 FM221600 08010KT P6SM SCT040 BECMG 2220/2221 SCT030CB

超过4000个机场的气象观测和天气预报(METAR&TAF报告)。

可查询的气象台以黄色和红色小点在地图上表示。

将鼠标移到小点上方,可查看气象台名称。

然后点击查看天气观测和预报。

如需切换地图:点击带黑十字的绿色按钮放大地图;点击带横线的绿色按钮缩小地图;或者点击绿色箭头查看邻近地区的地图。


METAR-TAF: